sensor_id;sensor_type;location;lat;lon;timestamp;P1;durP1;ratioP1;P2;durP2;ratioP2
10333;SDS011;5212;47.892;16.406;2024-01-30T00:01:25;8.80;;;5.90;;
10333;SDS011;5212;47.892;16.406;2024-01-30T00:03:51;10.17;;;6.73;;
10333;SDS011;5212;47.892;16.406;2024-01-30T00:06:18;11.20;;;6.87;;
10333;SDS011;5212;47.892;16.406;2024-01-30T00:08:44;12.27;;;6.97;;
10333;SDS011;5212;47.892;16.406;2024-01-30T00:11:14;11.70;;;6.60;;
10333;SDS011;5212;47.892;16.406;2024-01-30T00:13:40;11.13;;;6.53;;
10333;SDS011;5212;47.892;16.406;2024-01-30T00:16:06;11.67;;;6.50;;
10333;SDS011;5212;47.892;16.406;2024-01-30T00:18:33;8.30;;;6.03;;
10333;SDS011;5212;47.892;16.406;2024-01-30T00:20:59;13.20;;;6.93;;
10333;SDS011;5212;47.892;16.406;2024-01-30T00:23:25;10.77;;;6.83;;
10333;SDS011;5212;47.892;16.406;2024-01-30T00:25:51;14.77;;;7.93;;
10333;SDS011;5212;47.892;16.406;2024-01-30T00:28:17;9.13;;;6.33;;
10333;SDS011;5212;47.892;16.406;2024-01-30T00:30:44;11.50;;;7.30;;
10333;SDS011;5212;47.892;16.406;2024-01-30T00:33:10;10.67;;;6.13;;
10333;SDS011;5212;47.892;16.406;2024-01-30T00:35:36;14.07;;;6.90;;
10333;SDS011;5212;47.892;16.406;2024-01-30T00:38:03;13.27;;;7.07;;
10333;SDS011;5212;47.892;16.406;2024-01-30T00:40:29;12.27;;;7.53;;
10333;SDS011;5212;47.892;16.406;2024-01-30T00:42:55;12.00;;;6.87;;
10333;SDS011;5212;47.892;16.406;2024-01-30T00:45:21;14.13;;;7.57;;
10333;SDS011;5212;47.892;16.406;2024-01-30T00:47:47;13.07;;;7.53;;
10333;SDS011;5212;47.892;16.406;2024-01-30T00:50:13;14.30;;;8.13;;
10333;SDS011;5212;47.892;16.406;2024-01-30T00:52:40;14.37;;;8.17;;
10333;SDS011;5212;47.892;16.406;2024-01-30T00:55:07;16.47;;;8.40;;
10333;SDS011;5212;47.892;16.406;2024-01-30T00:57:33;16.13;;;7.97;;
10333;SDS011;5212;47.892;16.406;2024-01-30T00:59:58;12.47;;;7.27;;
10333;SDS011;5212;47.892;16.406;2024-01-30T01:02:24;14.00;;;8.47;;
10333;SDS011;5212;47.892;16.406;2024-01-30T01:04:50;12.97;;;8.23;;
10333;SDS011;5212;47.892;16.406;2024-01-30T01:07:16;15.13;;;8.20;;
10333;SDS011;5212;47.892;16.406;2024-01-30T01:09:43;16.43;;;8.80;;
10333;SDS011;5212;47.892;16.406;2024-01-30T01:12:09;13.50;;;8.33;;
10333;SDS011;5212;47.892;16.406;2024-01-30T01:14:35;12.60;;;7.60;;
10333;SDS011;5212;47.892;16.406;2024-01-30T01:17:01;15.07;;;8.27;;
10333;SDS011;5212;47.892;16.406;2024-01-30T01:19:27;14.37;;;7.80;;
10333;SDS011;5212;47.892;16.406;2024-01-30T01:21:53;13.53;;;8.20;;
10333;SDS011;5212;47.892;16.406;2024-01-30T01:24:19;13.67;;;7.73;;
10333;SDS011;5212;47.892;16.406;2024-01-30T01:26:46;14.63;;;8.33;;
10333;SDS011;5212;47.892;16.406;2024-01-30T01:29:12;13.23;;;7.23;;
10333;SDS011;5212;47.892;16.406;2024-01-30T01:31:38;11.90;;;7.23;;
10333;SDS011;5212;47.892;16.406;2024-01-30T01:34:08;13.50;;;7.80;;
10333;SDS011;5212;47.892;16.406;2024-01-30T01:36:34;17.43;;;8.60;;
10333;SDS011;5212;47.892;16.406;2024-01-30T01:39:00;11.30;;;7.47;;
10333;SDS011;5212;47.892;16.406;2024-01-30T01:41:29;13.57;;;7.93;;
10333;SDS011;5212;47.892;16.406;2024-01-30T01:43:56;14.57;;;8.00;;
10333;SDS011;5212;47.892;16.406;2024-01-30T01:46:22;11.97;;;7.83;;
10333;SDS011;5212;47.892;16.406;2024-01-30T01:48:48;15.37;;;8.13;;
10333;SDS011;5212;47.892;16.406;2024-01-30T01:51:14;12.13;;;7.27;;
10333;SDS011;5212;47.892;16.406;2024-01-30T01:53:40;15.77;;;7.83;;
10333;SDS011;5212;47.892;16.406;2024-01-30T01:56:06;15.37;;;8.10;;
10333;SDS011;5212;47.892;16.406;2024-01-30T01:58:32;12.80;;;7.27;;
10333;SDS011;5212;47.892;16.406;2024-01-30T02:00:59;13.40;;;7.50;;
10333;SDS011;5212;47.892;16.406;2024-01-30T02:03:25;14.00;;;7.70;;
10333;SDS011;5212;47.892;16.406;2024-01-30T02:05:51;9.83;;;6.73;;
10333;SDS011;5212;47.892;16.406;2024-01-30T02:08:17;11.03;;;6.97;;
10333;SDS011;5212;47.892;16.406;2024-01-30T02:10:43;11.70;;;6.43;;
10333;SDS011;5212;47.892;16.406;2024-01-30T02:13:09;11.00;;;6.70;;
10333;SDS011;5212;47.892;16.406;2024-01-30T02:15:35;11.57;;;7.10;;
10333;SDS011;5212;47.892;16.406;2024-01-30T02:18:02;12.93;;;7.53;;
10333;SDS011;5212;47.892;16.406;2024-01-30T02:20:28;11.67;;;6.97;;
10333;SDS011;5212;47.892;16.406;2024-01-30T02:22:56;12.33;;;7.43;;
10333;SDS011;5212;47.892;16.406;2024-01-30T02:25:36;14.10;;;7.23;;
10333;SDS011;5212;47.892;16.406;2024-01-30T02:28:03;10.77;;;7.90;;
10333;SDS011;5212;47.892;16.406;2024-01-30T02:30:29;11.90;;;7.50;;
10333;SDS011;5212;47.892;16.406;2024-01-30T02:32:55;14.47;;;8.47;;
10333;SDS011;5212;47.892;16.406;2024-01-30T02:35:21;11.93;;;7.43;;
10333;SDS011;5212;47.892;16.406;2024-01-30T02:37:47;15.47;;;8.53;;
10333;SDS011;5212;47.892;16.406;2024-01-30T02:40:14;16.73;;;8.80;;
10333;SDS011;5212;47.892;16.406;2024-01-30T02:42:40;12.63;;;7.73;;
10333;SDS011;5212;47.892;16.406;2024-01-30T02:45:07;14.33;;;7.97;;
10333;SDS011;5212;47.892;16.406;2024-01-30T02:47:34;12.90;;;8.00;;
10333;SDS011;5212;47.892;16.406;2024-01-30T02:50:00;14.93;;;8.10;;
10333;SDS011;5212;47.892;16.406;2024-01-30T02:52:26;17.43;;;8.60;;
10333;SDS011;5212;47.892;16.406;2024-01-30T02:54:52;14.23;;;7.93;;
10333;SDS011;5212;47.892;16.406;2024-01-30T02:57:19;13.63;;;8.70;;
10333;SDS011;5212;47.892;16.406;2024-01-30T02:59:45;12.83;;;7.60;;
10333;SDS011;5212;47.892;16.406;2024-01-30T03:02:11;13.77;;;8.10;;
10333;SDS011;5212;47.892;16.406;2024-01-30T03:04:37;15.90;;;8.23;;
10333;SDS011;5212;47.892;16.406;2024-01-30T03:07:03;12.80;;;8.40;;
10333;SDS011;5212;47.892;16.406;2024-01-30T03:09:29;14.73;;;8.47;;
10333;SDS011;5212;47.892;16.406;2024-01-30T03:11:55;11.53;;;7.70;;
10333;SDS011;5212;47.892;16.406;2024-01-30T03:14:21;12.97;;;7.77;;
10333;SDS011;5212;47.892;16.406;2024-01-30T03:16:47;12.93;;;7.17;;
10333;SDS011;5212;47.892;16.406;2024-01-30T03:19:13;11.27;;;6.93;;
10333;SDS011;5212;47.892;16.406;2024-01-30T03:21:39;14.60;;;7.20;;
10333;SDS011;5212;47.892;16.406;2024-01-30T03:24:05;15.30;;;8.20;;
10333;SDS011;5212;47.892;16.406;2024-01-30T03:26:31;12.50;;;7.50;;
10333;SDS011;5212;47.892;16.406;2024-01-30T03:28:57;14.70;;;8.20;;
10333;SDS011;5212;47.892;16.406;2024-01-30T03:31:24;13.83;;;7.53;;
10333;SDS011;5212;47.892;16.406;2024-01-30T03:33:50;12.63;;;8.00;;
10333;SDS011;5212;47.892;16.406;2024-01-30T03:36:16;12.93;;;7.73;;
10333;SDS011;5212;47.892;16.406;2024-01-30T03:38:42;16.30;;;8.03;;
10333;SDS011;5212;47.892;16.406;2024-01-30T03:41:08;12.33;;;7.93;;
10333;SDS011;5212;47.892;16.406;2024-01-30T03:43:34;15.47;;;8.57;;
10333;SDS011;5212;47.892;16.406;2024-01-30T03:46:00;19.90;;;8.93;;
10333;SDS011;5212;47.892;16.406;2024-01-30T03:48:28;12.20;;;8.40;;
10333;SDS011;5212;47.892;16.406;2024-01-30T03:50:54;13.73;;;8.27;;
10333;SDS011;5212;47.892;16.406;2024-01-30T03:53:21;14.13;;;8.20;;
10333;SDS011;5212;47.892;16.406;2024-01-30T03:55:47;17.00;;;8.20;;
10333;SDS011;5212;47.892;16.406;2024-01-30T03:58:13;12.10;;;7.47;;
10333;SDS011;5212;47.892;16.406;2024-01-30T04:00:39;14.30;;;7.60;;
10333;SDS011;5212;47.892;16.406;2024-01-30T04:03:06;14.23;;;7.93;;
10333;SDS011;5212;47.892;16.406;2024-01-30T04:05:33;14.30;;;8.10;;
10333;SDS011;5212;47.892;16.406;2024-01-30T04:07:59;16.00;;;8.17;;
10333;SDS011;5212;47.892;16.406;2024-01-30T04:10:25;11.70;;;7.30;;
10333;SDS011;5212;47.892;16.406;2024-01-30T04:12:51;12.43;;;8.47;;
10333;SDS011;5212;47.892;16.406;2024-01-30T04:15:17;12.17;;;7.20;;
10333;SDS011;5212;47.892;16.406;2024-01-30T04:17:43;12.30;;;7.80;;
10333;SDS011;5212;47.892;16.406;2024-01-30T04:20:12;15.13;;;8.43;;
10333;SDS011;5212;47.892;16.406;2024-01-30T04:22:40;13.63;;;8.07;;
10333;SDS011;5212;47.892;16.406;2024-01-30T04:25:06;17.17;;;8.30;;
10333;SDS011;5212;47.892;16.406;2024-01-30T04:27:32;13.97;;;8.00;;
10333;SDS011;5212;47.892;16.406;2024-01-30T04:29:58;12.43;;;8.60;;
10333;SDS011;5212;47.892;16.406;2024-01-30T04:32:24;16.17;;;8.83;;
10333;SDS011;5212;47.892;16.406;2024-01-30T04:34:50;12.00;;;7.93;;
10333;SDS011;5212;47.892;16.406;2024-01-30T04:37:16;11.60;;;7.87;;
10333;SDS011;5212;47.892;16.406;2024-01-30T04:39:43;13.13;;;8.27;;
10333;SDS011;5212;47.892;16.406;2024-01-30T04:42:09;15.27;;;8.00;;
10333;SDS011;5212;47.892;16.406;2024-01-30T04:44:35;16.57;;;8.80;;
10333;SDS011;5212;47.892;16.406;2024-01-30T04:47:01;14.33;;;8.13;;
10333;SDS011;5212;47.892;16.406;2024-01-30T04:49:27;12.60;;;8.13;;
10333;SDS011;5212;47.892;16.406;2024-01-30T04:51:54;14.17;;;8.20;;
10333;SDS011;5212;47.892;16.406;2024-01-30T04:54:20;14.73;;;8.60;;
10333;SDS011;5212;47.892;16.406;2024-01-30T04:56:46;16.47;;;8.77;;
10333;SDS011;5212;47.892;16.406;2024-01-30T04:59:12;16.47;;;9.30;;
10333;SDS011;5212;47.892;16.406;2024-01-30T05:01:38;16.73;;;8.97;;
10333;SDS011;5212;47.892;16.406;2024-01-30T05:04:07;16.30;;;8.47;;
10333;SDS011;5212;47.892;16.406;2024-01-30T05:06:33;14.23;;;7.67;;
10333;SDS011;5212;47.892;16.406;2024-01-30T05:08:59;14.60;;;8.83;;
10333;SDS011;5212;47.892;16.406;2024-01-30T05:11:25;15.70;;;8.33;;
10333;SDS011;5212;47.892;16.406;2024-01-30T05:13:51;15.40;;;8.27;;
10333;SDS011;5212;47.892;16.406;2024-01-30T05:16:17;14.07;;;8.63;;
10333;SDS011;5212;47.892;16.406;2024-01-30T05:18:43;14.37;;;8.67;;
10333;SDS011;5212;47.892;16.406;2024-01-30T05:21:10;13.53;;;8.60;;
10333;SDS011;5212;47.892;16.406;2024-01-30T05:23:36;15.00;;;8.73;;
10333;SDS011;5212;47.892;16.406;2024-01-30T05:26:02;15.37;;;8.60;;
10333;SDS011;5212;47.892;16.406;2024-01-30T05:28:28;15.53;;;8.50;;
10333;SDS011;5212;47.892;16.406;2024-01-30T05:30:55;14.53;;;8.97;;
10333;SDS011;5212;47.892;16.406;2024-01-30T05:33:21;15.53;;;8.90;;
10333;SDS011;5212;47.892;16.406;2024-01-30T05:35:47;15.23;;;8.73;;
10333;SDS011;5212;47.892;16.406;2024-01-30T05:38:15;15.20;;;8.80;;
10333;SDS011;5212;47.892;16.406;2024-01-30T05:40:41;16.07;;;9.20;;
10333;SDS011;5212;47.892;16.406;2024-01-30T05:43:07;14.20;;;8.67;;
10333;SDS011;5212;47.892;16.406;2024-01-30T05:45:33;14.13;;;9.00;;
10333;SDS011;5212;47.892;16.406;2024-01-30T05:48:00;13.20;;;8.33;;
10333;SDS011;5212;47.892;16.406;2024-01-30T05:50:26;15.47;;;8.37;;
10333;SDS011;5212;47.892;16.406;2024-01-30T05:52:52;16.33;;;8.90;;
10333;SDS011;5212;47.892;16.406;2024-01-30T05:55:18;12.93;;;7.37;;
10333;SDS011;5212;47.892;16.406;2024-01-30T05:57:44;12.63;;;7.90;;
10333;SDS011;5212;47.892;16.406;2024-01-30T06:00:11;14.57;;;8.27;;
10333;SDS011;5212;47.892;16.406;2024-01-30T06:02:37;14.03;;;8.50;;
10333;SDS011;5212;47.892;16.406;2024-01-30T06:05:04;14.60;;;8.63;;
10333;SDS011;5212;47.892;16.406;2024-01-30T06:07:31;18.43;;;9.73;;
10333;SDS011;5212;47.892;16.406;2024-01-30T06:09:57;13.90;;;8.13;;
10333;SDS011;5212;47.892;16.406;2024-01-30T06:12:23;11.83;;;7.70;;
10333;SDS011;5212;47.892;16.406;2024-01-30T06:14:49;14.07;;;8.67;;
10333;SDS011;5212;47.892;16.406;2024-01-30T06:17:15;16.13;;;8.83;;
10333;SDS011;5212;47.892;16.406;2024-01-30T06:19:41;15.60;;;9.23;;
10333;SDS011;5212;47.892;16.406;2024-01-30T06:22:07;13.70;;;8.57;;
10333;SDS011;5212;47.892;16.406;2024-01-30T06:24:33;16.77;;;8.00;;
10333;SDS011;5212;47.892;16.406;2024-01-30T06:27:00;18.37;;;9.40;;
10333;SDS011;5212;47.892;16.406;2024-01-30T06:29:26;16.23;;;9.97;;
10333;SDS011;5212;47.892;16.406;2024-01-30T06:31:52;19.57;;;10.20;;
10333;SDS011;5212;47.892;16.406;2024-01-30T06:34:18;15.53;;;8.67;;
10333;SDS011;5212;47.892;16.406;2024-01-30T06:36:44;16.83;;;9.77;;
10333;SDS011;5212;47.892;16.406;2024-01-30T06:39:10;15.87;;;10.23;;
10333;SDS011;5212;47.892;16.406;2024-01-30T06:41:37;20.67;;;12.03;;
10333;SDS011;5212;47.892;16.406;2024-01-30T06:44:03;15.40;;;9.17;;
10333;SDS011;5212;47.892;16.406;2024-01-30T06:46:31;17.00;;;10.53;;
10333;SDS011;5212;47.892;16.406;2024-01-30T06:48:57;14.43;;;9.47;;
10333;SDS011;5212;47.892;16.406;2024-01-30T06:51:23;16.90;;;10.43;;
10333;SDS011;5212;47.892;16.406;2024-01-30T06:53:49;17.80;;;9.73;;
10333;SDS011;5212;47.892;16.406;2024-01-30T06:56:16;22.50;;;13.67;;
10333;SDS011;5212;47.892;16.406;2024-01-30T06:58:45;20.97;;;12.83;;
10333;SDS011;5212;47.892;16.406;2024-01-30T07:01:12;15.93;;;9.47;;
10333;SDS011;5212;47.892;16.406;2024-01-30T07:03:38;18.37;;;8.70;;
10333;SDS011;5212;47.892;16.406;2024-01-30T07:06:04;17.47;;;8.87;;
10333;SDS011;5212;47.892;16.406;2024-01-30T07:08:30;15.70;;;9.27;;
10333;SDS011;5212;47.892;16.406;2024-01-30T07:10:56;18.13;;;9.20;;
10333;SDS011;5212;47.892;16.406;2024-01-30T07:13:22;16.57;;;10.30;;
10333;SDS011;5212;47.892;16.406;2024-01-30T07:15:48;16.90;;;9.57;;
10333;SDS011;5212;47.892;16.406;2024-01-30T07:18:14;13.90;;;8.80;;
10333;SDS011;5212;47.892;16.406;2024-01-30T07:20:40;13.90;;;8.23;;
10333;SDS011;5212;47.892;16.406;2024-01-30T07:23:11;15.00;;;8.17;;
10333;SDS011;5212;47.892;16.406;2024-01-30T07:25:39;18.07;;;8.23;;
10333;SDS011;5212;47.892;16.406;2024-01-30T07:28:06;18.00;;;8.73;;
10333;SDS011;5212;47.892;16.406;2024-01-30T07:30:33;15.53;;;8.00;;
10333;SDS011;5212;47.892;16.406;2024-01-30T07:32:59;15.10;;;8.90;;
10333;SDS011;5212;47.892;16.406;2024-01-30T07:35:25;14.20;;;8.67;;
10333;SDS011;5212;47.892;16.406;2024-01-30T07:37:51;11.67;;;7.37;;
10333;SDS011;5212;47.892;16.406;2024-01-30T07:40:17;10.33;;;6.97;;
10333;SDS011;5212;47.892;16.406;2024-01-30T07:42:43;13.27;;;7.30;;
10333;SDS011;5212;47.892;16.406;2024-01-30T07:45:09;11.77;;;7.13;;
10333;SDS011;5212;47.892;16.406;2024-01-30T07:47:36;14.57;;;7.73;;
10333;SDS011;5212;47.892;16.406;2024-01-30T07:50:02;13.73;;;8.00;;
10333;SDS011;5212;47.892;16.406;2024-01-30T07:52:28;13.30;;;7.00;;
10333;SDS011;5212;47.892;16.406;2024-01-30T07:58:13;12.23;;;7.20;;
10333;SDS011;5212;47.892;16.406;2024-01-30T08:00:39;10.27;;;6.20;;
10333;SDS011;5212;47.892;16.406;2024-01-30T08:03:06;12.90;;;6.33;;
10333;SDS011;5212;47.892;16.406;2024-01-30T08:05:32;11.60;;;7.03;;
10333;SDS011;5212;47.892;16.406;2024-01-30T08:07:58;12.60;;;7.17;;
10333;SDS011;5212;47.892;16.406;2024-01-30T08:10:24;16.93;;;7.37;;
10333;SDS011;5212;47.892;16.406;2024-01-30T08:12:50;13.53;;;7.27;;
10333;SDS011;5212;47.892;16.406;2024-01-30T08:15:16;13.20;;;7.00;;
10333;SDS011;5212;47.892;16.406;2024-01-30T08:17:42;11.97;;;6.57;;
10333;SDS011;5212;47.892;16.406;2024-01-30T08:20:10;14.00;;;7.40;;
10333;SDS011;5212;47.892;16.406;2024-01-30T08:22:37;11.17;;;6.80;;
10333;SDS011;5212;47.892;16.406;2024-01-30T08:25:04;10.07;;;6.23;;
10333;SDS011;5212;47.892;16.406;2024-01-30T08:27:31;12.27;;;6.57;;
10333;SDS011;5212;47.892;16.406;2024-01-30T08:29:57;10.27;;;6.33;;
10333;SDS011;5212;47.892;16.406;2024-01-30T08:32:23;11.37;;;6.67;;
10333;SDS011;5212;47.892;16.406;2024-01-30T08:34:49;11.40;;;6.83;;
10333;SDS011;5212;47.892;16.406;2024-01-30T08:37:15;11.83;;;6.37;;
10333;SDS011;5212;47.892;16.406;2024-01-30T08:39:42;9.67;;;6.17;;
10333;SDS011;5212;47.892;16.406;2024-01-30T08:42:08;12.13;;;7.20;;
10333;SDS011;5212;47.892;16.406;2024-01-30T08:44:33;15.00;;;7.53;;
10333;SDS011;5212;47.892;16.406;2024-01-30T08:46:59;10.43;;;6.07;;
10333;SDS011;5212;47.892;16.406;2024-01-30T08:49:25;11.90;;;6.77;;
10333;SDS011;5212;47.892;16.406;2024-01-30T08:51:51;11.40;;;6.80;;
10333;SDS011;5212;47.892;16.406;2024-01-30T08:54:18;8.23;;;5.87;;
10333;SDS011;5212;47.892;16.406;2024-01-30T08:56:44;12.07;;;6.37;;
10333;SDS011;5212;47.892;16.406;2024-01-30T08:59:10;8.53;;;6.30;;
10333;SDS011;5212;47.892;16.406;2024-01-30T09:01:36;11.73;;;6.87;;
10333;SDS011;5212;47.892;16.406;2024-01-30T09:04:02;13.93;;;7.43;;
10333;SDS011;5212;47.892;16.406;2024-01-30T09:06:28;13.90;;;7.77;;
10333;SDS011;5212;47.892;16.406;2024-01-30T09:08:54;17.00;;;8.67;;
10333;SDS011;5212;47.892;16.406;2024-01-30T09:11:23;10.97;;;6.70;;
10333;SDS011;5212;47.892;16.406;2024-01-30T09:13:49;10.83;;;6.47;;
10333;SDS011;5212;47.892;16.406;2024-01-30T09:16:15;11.57;;;6.37;;
10333;SDS011;5212;47.892;16.406;2024-01-30T09:18:42;12.50;;;7.50;;
10333;SDS011;5212;47.892;16.406;2024-01-30T09:21:08;11.20;;;7.13;;
10333;SDS011;5212;47.892;16.406;2024-01-30T09:23:34;11.03;;;7.13;;
10333;SDS011;5212;47.892;16.406;2024-01-30T09:26:00;10.43;;;7.17;;
10333;SDS011;5212;47.892;16.406;2024-01-30T09:28:26;14.03;;;6.93;;
10333;SDS011;5212;47.892;16.406;2024-01-30T09:30:52;23.77;;;11.37;;
10333;SDS011;5212;47.892;16.406;2024-01-30T09:33:18;15.23;;;7.63;;
10333;SDS011;5212;47.892;16.406;2024-01-30T09:35:45;11.97;;;7.23;;
10333;SDS011;5212;47.892;16.406;2024-01-30T09:38:11;10.73;;;6.77;;
10333;SDS011;5212;47.892;16.406;2024-01-30T09:40:37;11.90;;;6.43;;
10333;SDS011;5212;47.892;16.406;2024-01-30T09:43:03;14.67;;;7.53;;
10333;SDS011;5212;47.892;16.406;2024-01-30T09:45:30;13.17;;;7.13;;
10333;SDS011;5212;47.892;16.406;2024-01-30T09:47:58;10.37;;;6.80;;
10333;SDS011;5212;47.892;16.406;2024-01-30T09:50:25;11.60;;;6.83;;
10333;SDS011;5212;47.892;16.406;2024-01-30T09:52:51;10.47;;;6.60;;
10333;SDS011;5212;47.892;16.406;2024-01-30T09:55:17;13.37;;;6.43;;
10333;SDS011;5212;47.892;16.406;2024-01-30T09:57:43;9.67;;;5.93;;
10333;SDS011;5212;47.892;16.406;2024-01-30T10:00:09;18.43;;;8.53;;
10333;SDS011;5212;47.892;16.406;2024-01-30T10:02:37;8.97;;;6.40;;
10333;SDS011;5212;47.892;16.406;2024-01-30T10:05:04;8.27;;;5.43;;
10333;SDS011;5212;47.892;16.406;2024-01-30T10:07:30;9.90;;;6.33;;
10333;SDS011;5212;47.892;16.406;2024-01-30T10:09:56;10.33;;;6.30;;
10333;SDS011;5212;47.892;16.406;2024-01-30T10:12:23;10.90;;;6.93;;
10333;SDS011;5212;47.892;16.406;2024-01-30T10:14:49;10.80;;;6.20;;
10333;SDS011;5212;47.892;16.406;2024-01-30T10:17:15;9.03;;;6.23;;
10333;SDS011;5212;47.892;16.406;2024-01-30T10:19:41;8.60;;;6.10;;
10333;SDS011;5212;47.892;16.406;2024-01-30T10:22:07;11.37;;;6.10;;
10333;SDS011;5212;47.892;16.406;2024-01-30T10:24:35;12.20;;;6.57;;
10333;SDS011;5212;47.892;16.406;2024-01-30T10:27:01;10.83;;;6.37;;
10333;SDS011;5212;47.892;16.406;2024-01-30T10:29:27;9.90;;;5.73;;
10333;SDS011;5212;47.892;16.406;2024-01-30T10:31:59;14.03;;;6.17;;
10333;SDS011;5212;47.892;16.406;2024-01-30T10:34:25;11.77;;;6.43;;
10333;SDS011;5212;47.892;16.406;2024-01-30T10:36:55;10.30;;;5.87;;
10333;SDS011;5212;47.892;16.406;2024-01-30T10:39:25;9.97;;;5.80;;
10333;SDS011;5212;47.892;16.406;2024-01-30T10:41:55;10.67;;;6.30;;
10333;SDS011;5212;47.892;16.406;2024-01-30T10:44:22;12.20;;;6.70;;
10333;SDS011;5212;47.892;16.406;2024-01-30T10:46:49;9.10;;;5.77;;
10333;SDS011;5212;47.892;16.406;2024-01-30T10:49:17;9.57;;;5.90;;
10333;SDS011;5212;47.892;16.406;2024-01-30T10:51:44;10.70;;;6.03;;
10333;SDS011;5212;47.892;16.406;2024-01-30T10:54:11;12.53;;;6.97;;
10333;SDS011;5212;47.892;16.406;2024-01-30T10:56:38;10.03;;;5.83;;
10333;SDS011;5212;47.892;16.406;2024-01-30T10:59:05;11.77;;;5.87;;
10333;SDS011;5212;47.892;16.406;2024-01-30T11:01:31;10.60;;;6.07;;
10333;SDS011;5212;47.892;16.406;2024-01-30T11:03:57;9.97;;;5.70;;
10333;SDS011;5212;47.892;16.406;2024-01-30T11:06:24;9.73;;;5.43;;
10333;SDS011;5212;47.892;16.406;2024-01-30T11:08:59;10.50;;;5.73;;
10333;SDS011;5212;47.892;16.406;2024-01-30T11:11:27;13.20;;;5.77;;
10333;SDS011;5212;47.892;16.406;2024-01-30T11:13:53;10.80;;;5.67;;
10333;SDS011;5212;47.892;16.406;2024-01-30T11:16:19;9.37;;;6.50;;
10333;SDS011;5212;47.892;16.406;2024-01-30T11:18:49;11.40;;;6.07;;
10333;SDS011;5212;47.892;16.406;2024-01-30T11:21:16;10.77;;;6.00;;
10333;SDS011;5212;47.892;16.406;2024-01-30T11:23:42;9.50;;;5.87;;
10333;SDS011;5212;47.892;16.406;2024-01-30T11:26:09;9.10;;;5.60;;
10333;SDS011;5212;47.892;16.406;2024-01-30T11:28:37;11.13;;;6.10;;
10333;SDS011;5212;47.892;16.406;2024-01-30T11:31:03;9.73;;;6.13;;
10333;SDS011;5212;47.892;16.406;2024-01-30T11:33:30;8.17;;;5.37;;
10333;SDS011;5212;47.892;16.406;2024-01-30T11:35:56;9.57;;;6.03;;
10333;SDS011;5212;47.892;16.406;2024-01-30T11:38:23;10.10;;;5.93;;
10333;SDS011;5212;47.892;16.406;2024-01-30T11:40:51;9.30;;;5.60;;
10333;SDS011;5212;47.892;16.406;2024-01-30T11:43:17;10.53;;;5.67;;
10333;SDS011;5212;47.892;16.406;2024-01-30T11:45:44;7.97;;;5.03;;
10333;SDS011;5212;47.892;16.406;2024-01-30T11:48:11;8.03;;;5.50;;
10333;SDS011;5212;47.892;16.406;2024-01-30T11:50:37;7.63;;;5.27;;
10333;SDS011;5212;47.892;16.406;2024-01-30T11:53:04;9.07;;;5.10;;
10333;SDS011;5212;47.892;16.406;2024-01-30T11:55:30;9.30;;;5.43;;
10333;SDS011;5212;47.892;16.406;2024-01-30T11:57:56;8.00;;;5.03;;
10333;SDS011;5212;47.892;16.406;2024-01-30T12:00:22;8.23;;;5.50;;
10333;SDS011;5212;47.892;16.406;2024-01-30T12:02:49;8.83;;;5.33;;
10333;SDS011;5212;47.892;16.406;2024-01-30T12:05:16;8.97;;;5.47;;
10333;SDS011;5212;47.892;16.406;2024-01-30T12:07:43;8.80;;;5.47;;
10333;SDS011;5212;47.892;16.406;2024-01-30T12:10:09;10.53;;;5.10;;
10333;SDS011;5212;47.892;16.406;2024-01-30T12:12:36;9.97;;;5.63;;
10333;SDS011;5212;47.892;16.406;2024-01-30T12:15:02;10.27;;;6.17;;
10333;SDS011;5212;47.892;16.406;2024-01-30T12:17:30;9.80;;;5.87;;
10333;SDS011;5212;47.892;16.406;2024-01-30T12:20:03;9.10;;;5.47;;
10333;SDS011;5212;47.892;16.406;2024-01-30T12:22:31;8.13;;;5.70;;
10333;SDS011;5212;47.892;16.406;2024-01-30T12:24:59;8.57;;;5.03;;
10333;SDS011;5212;47.892;16.406;2024-01-30T12:27:25;13.10;;;6.13;;
10333;SDS011;5212;47.892;16.406;2024-01-30T12:29:55;8.83;;;5.23;;
10333;SDS011;5212;47.892;16.406;2024-01-30T12:32:22;10.60;;;6.03;;
10333;SDS011;5212;47.892;16.406;2024-01-30T12:34:48;10.70;;;5.30;;
10333;SDS011;5212;47.892;16.406;2024-01-30T12:37:15;8.93;;;5.07;;
10333;SDS011;5212;47.892;16.406;2024-01-30T12:39:44;12.30;;;5.60;;
10333;SDS011;5212;47.892;16.406;2024-01-30T12:42:10;8.43;;;4.47;;
10333;SDS011;5212;47.892;16.406;2024-01-30T12:44:36;9.53;;;5.70;;
10333;SDS011;5212;47.892;16.406;2024-01-30T12:47:03;9.83;;;5.13;;
10333;SDS011;5212;47.892;16.406;2024-01-30T12:49:29;9.10;;;5.50;;
10333;SDS011;5212;47.892;16.406;2024-01-30T12:51:55;8.53;;;5.77;;
10333;SDS011;5212;47.892;16.406;2024-01-30T12:54:22;8.73;;;5.30;;
10333;SDS011;5212;47.892;16.406;2024-01-30T12:56:48;9.10;;;5.23;;
10333;SDS011;5212;47.892;16.406;2024-01-30T12:59:14;7.50;;;4.97;;
10333;SDS011;5212;47.892;16.406;2024-01-30T13:01:41;9.77;;;5.27;;
10333;SDS011;5212;47.892;16.406;2024-01-30T13:04:07;9.70;;;5.13;;
10333;SDS011;5212;47.892;16.406;2024-01-30T13:06:33;9.63;;;4.80;;
10333;SDS011;5212;47.892;16.406;2024-01-30T13:08:59;7.57;;;4.63;;
10333;SDS011;5212;47.892;16.406;2024-01-30T13:11:26;5.23;;;3.97;;
10333;SDS011;5212;47.892;16.406;2024-01-30T13:13:52;6.77;;;4.40;;
10333;SDS011;5212;47.892;16.406;2024-01-30T13:16:18;7.40;;;4.13;;
10333;SDS011;5212;47.892;16.406;2024-01-30T13:18:44;7.13;;;4.07;;
10333;SDS011;5212;47.892;16.406;2024-01-30T13:21:10;9.27;;;5.47;;
10333;SDS011;5212;47.892;16.406;2024-01-30T13:23:36;6.43;;;4.63;;
10333;SDS011;5212;47.892;16.406;2024-01-30T13:26:02;6.23;;;4.30;;
10333;SDS011;5212;47.892;16.406;2024-01-30T13:28:29;7.87;;;4.47;;
10333;SDS011;5212;47.892;16.406;2024-01-30T13:30:55;7.20;;;4.30;;
10333;SDS011;5212;47.892;16.406;2024-01-30T13:33:21;6.70;;;4.10;;
10333;SDS011;5212;47.892;16.406;2024-01-30T13:35:47;8.07;;;4.80;;
10333;SDS011;5212;47.892;16.406;2024-01-30T13:38:13;7.00;;;4.30;;
10333;SDS011;5212;47.892;16.406;2024-01-30T13:40:40;7.00;;;4.90;;
10333;SDS011;5212;47.892;16.406;2024-01-30T13:43:06;7.37;;;4.97;;
10333;SDS011;5212;47.892;16.406;2024-01-30T13:45:33;8.60;;;4.83;;
10333;SDS011;5212;47.892;16.406;2024-01-30T13:47:59;8.30;;;4.60;;
10333;SDS011;5212;47.892;16.406;2024-01-30T13:50:25;6.27;;;4.20;;
10333;SDS011;5212;47.892;16.406;2024-01-30T13:52:51;7.37;;;4.37;;
10333;SDS011;5212;47.892;16.406;2024-01-30T13:55:17;8.37;;;4.50;;
10333;SDS011;5212;47.892;16.406;2024-01-30T13:57:43;8.80;;;4.90;;
10333;SDS011;5212;47.892;16.406;2024-01-30T14:00:10;6.90;;;4.50;;
10333;SDS011;5212;47.892;16.406;2024-01-30T14:02:37;5.63;;;4.20;;
10333;SDS011;5212;47.892;16.406;2024-01-30T14:05:04;12.83;;;5.20;;
10333;SDS011;5212;47.892;16.406;2024-01-30T14:07:31;6.87;;;4.90;;
10333;SDS011;5212;47.892;16.406;2024-01-30T14:09:57;9.70;;;5.17;;
10333;SDS011;5212;47.892;16.406;2024-01-30T14:12:23;7.27;;;4.93;;
10333;SDS011;5212;47.892;16.406;2024-01-30T14:14:50;6.50;;;4.97;;
10333;SDS011;5212;47.892;16.406;2024-01-30T14:17:16;7.63;;;5.27;;
10333;SDS011;5212;47.892;16.406;2024-01-30T14:19:43;8.53;;;5.00;;
10333;SDS011;5212;47.892;16.406;2024-01-30T14:22:09;7.77;;;5.23;;
10333;SDS011;5212;47.892;16.406;2024-01-30T14:24:36;12.67;;;5.77;;
10333;SDS011;5212;47.892;16.406;2024-01-30T14:27:02;9.87;;;4.93;;
10333;SDS011;5212;47.892;16.406;2024-01-30T14:29:29;8.03;;;4.90;;
10333;SDS011;5212;47.892;16.406;2024-01-30T14:31:55;8.27;;;4.73;;
10333;SDS011;5212;47.892;16.406;2024-01-30T14:34:22;7.00;;;4.57;;
10333;SDS011;5212;47.892;16.406;2024-01-30T14:36:48;6.93;;;4.23;;